| time (UTC) | temp F | wind direction | speed knots | gust knots | rain 1hr in | rain 24hr in | rain mn in | humidity % | barometer mb |
| 20260507181717 | 51 | 233 | 0.0 | 1.7 | 0.00 | 0.03 | 0.03 | 91 | 1014.0 |
| 20260507180003 | 51 | 303 | 0.9 | 2.6 | 0.00 | 0.03 | 0.03 | 92 | 1013.8 |
| 20260507174503 | 51 | 179 | 1.7 | 4.3 | 0.00 | 0.03 | 0.03 | 91 | 1013.9 |
| 20260507173003 | 51 | 165 | 1.7 | 3.5 | 0.00 | 0.03 | 0.03 | 91 | 1014.0 |
| 20260507171503 | 51 | 166 | 1.7 | 4.3 | 0.00 | 0.03 | 0.03 | 91 | 1014.0 |
| 20260507170003 | 52 | 161 | 0.0 | 2.6 | 0.02 | 0.03 | 0.03 | 92 | 1014.1 |
| 20260507164718 | 51 | 182 | 2.6 | 4.3 | 0.03 | 0.03 | 0.03 | 92 | 1014.1 |
| 20260507163003 | 50 | 172 | 3.5 | 5.2 | 0.03 | 0.03 | 0.03 | 89 | 1014.2 |
| 20260507161503 | 50 | 200 | 5.2 | 7.8 | 0.03 | 0.03 | 0.03 | 86 | 1014.3 |
| 20260507160003 | 51 | 228 | 6.1 | 13.0 | 0.01 | 0.01 | 0.01 | 84 | 1014.4 |
| 20260507154503 | 53 | 259 | 8.7 | 12.2 | 0.00 | 0.00 | 0.00 | 75 | 1014.3 |
| 20260507153003 | 56 | 264 | 2.6 | 7.0 | 0.00 | 0.00 | 0.00 | 63 | 1014.0 |
| 20260507151503 | 56 | 284 | 1.7 | 4.3 | 0.00 | 0.00 | 0.00 | 62 | 1013.9 |
| 20260507150218 | 56 | 181 | 5.2 | 11.3 | 0.00 | 0.00 | 0.00 | 59 | 1013.9 |
| 20260507144503 | 57 | 128 | 3.5 | 7.8 | 0.00 | 0.00 | 0.00 | 63 | 1013.9 |
| 20260507143003 | 57 | 123 | 4.3 | 14.8 | 0.00 | 0.00 | 0.00 | 61 | 1014.0 |
| 20260507141503 | 57 | 192 | 6.1 | 15.6 | 0.00 | 0.00 | 0.00 | 61 | 1014.2 |
| 20260507140003 | 58 | 195 | 5.2 | 16.5 | 0.00 | 0.00 | 0.00 | 59 | 1014.3 |
| 20260507134503 | 58 | 134 | 3.5 | 10.4 | 0.00 | 0.00 | 0.00 | 62 | 1014.2 |
| 20260507133003 | 59 | 179 | 5.2 | 12.2 | 0.00 | 0.00 | 0.00 | 61 | 1014.3 |
| 20260507131503 | 59 | 119 | 3.5 | 10.4 | 0.00 | 0.00 | 0.00 | 66 | 1014.3 |
| 20260507130003 | 58 | 154 | 3.5 | 10.4 | 0.00 | 0.00 | 0.00 | 63 | 1014.5 |
| 20260507124503 | 58 | 199 | 4.3 | 15.6 | 0.00 | 0.00 | 0.00 | 63 | 1014.5 |
| 20260507123003 | 57 | 189 | 5.2 | 10.4 | 0.00 | 0.00 | 0.00 | 61 | 1014.7 |
| 20260507121503 | 59 | 127 | 4.3 | 11.3 | 0.00 | 0.00 | 0.00 | 64 | 1014.6 |
| 20260507120003 | 59 | 143 | 2.6 | 9.6 | 0.00 | 0.00 | 0.00 | 58 | 1014.6 |
| 20260507114503 | 59 | 127 | 5.2 | 11.3 | 0.00 | 0.00 | 0.00 | 59 | 1014.7 |
| 20260507113219 | 58 | 137 | 4.3 | 11.3 | 0.00 | 0.00 | 0.00 | 67 | 1014.9 |
| 20260507111503 | 57 | 140 | 2.6 | 7.8 | 0.00 | 0.00 | 0.00 | 66 | 1015.0 |
| 20260507110003 | 54 | 192 | 5.2 | 9.6 | 0.00 | 0.00 | 0.00 | 75 | 1015.2 |
| 20260507104503 | 53 | 179 | 2.6 | 7.8 | 0.00 | 0.00 | 0.00 | 75 | 1015.3 |
| 20260507103003 | 52 | 2 | 1.7 | 7.0 | 0.00 | 0.00 | 0.00 | 76 | 1015.3 |
| 20260507101503 | 51 | 103 | 2.6 | 7.0 | 0.00 | 0.00 | 0.00 | 78 | 1015.4 |
| 20260507100003 | 51 | 97 | 0.9 | 7.0 | 0.00 | 0.00 | 0.00 | 79 | 1015.4 |
| 20260507094503 | 50 | 212 | 0.0 | 7.8 | 0.00 | 0.00 | 0.00 | 79 | 1015.4 |
| 20260507093003 | 49 | 201 | 3.5 | 7.8 | 0.00 | 0.00 | 0.00 | 81 | 1015.4 |
| 20260507091503 | 49 | 281 | 1.7 | 3.5 | 0.00 | 0.00 | 0.00 | 84 | 1015.4 |
| 20260507090004 | 47 | 92 | 0.0 | 2.6 | 0.00 | 0.00 | 0.00 | 85 | 1015.5 |
| 20260507084719 | 46 | 59 | 0.9 | 2.6 | 0.00 | 0.00 | 0.00 | 88 | 1015.5 |
| 20260507083003 | 46 | 329 | 0.9 | 1.7 | 0.00 | 0.00 | 0.00 | 89 | 1015.5 |
| 20260507081717 | 45 | 262 | 0.9 | 2.6 | 0.00 | 0.00 | 0.00 | 91 | 1015.5 |
| 20260507080003 | 44 | 0 | 0.0 | 0.9 | 0.00 | 0.00 | 0.00 | 91 | 1015.5 |
| 20260507074503 | 44 | 45 | 0.9 | 1.7 | 0.00 | 0.00 | 0.00 | 92 | 1015.5 |
| 20260507073003 | 44 | 37 | 0.9 | 1.7 | 0.00 | 0.00 | 0.00 | 92 | 1015.5 |
| 20260507071716 | 44 | 58 | 1.7 | 2.6 | 0.00 | 0.00 | 0.00 | 92 | 1015.4 |
| 20260507070005 | 43 | 77 | 0.9 | 2.6 | 0.00 | 0.00 | 0.00 | 92 | 1015.2 |
| 20260507064503 | 43 | 67 | 0.9 | 5.2 | 0.00 | 0.00 | 0.00 | 94 | 1015.1 |
| 20260507063003 | 43 | 98 | 0.9 | 3.5 | 0.00 | 0.00 | 0.00 | 94 | 1015.1 |
| 20260507061503 | 43 | 114 | 1.7 | 6.1 | 0.00 | 0.00 | 0.00 | 94 | 1015.1 |
| 20260507060003 | 43 | 98 | 1.7 | 4.3 | 0.00 | 0.00 | 0.00 | 94 | 1015.1 |
| 20260507054503 | 42 | 122 | 1.7 | 4.3 | 0.00 | 0.00 | 0.00 | 94 | 1015.1 |
| 20260507053003 | 42 | 75 | 0.0 | 2.6 | 0.00 | 0.00 | 0.00 | 94 | 1015.0 |
| 20260507051503 | 42 | 119 | 1.7 | 5.2 | 0.00 | 0.00 | 0.00 | 94 | 1015.1 |
| 20260507050003 | 42 | 130 | 1.7 | 7.0 | 0.00 | 0.00 | 0.00 | 94 | 1015.1 |
| 20260507044503 | 42 | 0 | 0.0 | 0.0 | 0.00 | 0.00 | 0.00 | 92 | 1015.0 |
| 20260507043216 | 42 | 69 | 0.9 | 3.5 | 0.00 | 0.00 | 0.00 | 92 | 1014.9 |
| 20260507041715 | 42 | 59 | 1.7 | 5.2 | 0.00 | 0.00 | 0.00 | 92 | 1014.9 |
| 20260507040003 | 43 | 57 | 1.7 | 2.6 | 0.00 | 0.00 | 0.00 | 92 | 1014.9 |
| 20260507034503 | 43 | 86 | 1.7 | 5.2 | 0.00 | 0.00 | 0.00 | 92 | 1014.9 |
| 20260507033003 | 43 | 104 | 0.9 | 3.5 | 0.00 | 0.00 | 0.00 | 92 | 1014.9 |
| 20260507031503 | 43 | 128 | 1.7 | 5.2 | 0.00 | 0.00 | 0.00 | 91 | 1015.0 |
| 20260507030003 | 43 | 130 | 0.9 | 2.6 | 0.00 | 0.00 | 0.00 | 91 | 1015.0 |
| 20260507024717 | 43 | 252 | 0.0 | 2.6 | 0.00 | 0.00 | 0.00 | 91 | 1015.0 |
| 20260507023003 | 43 | 66 | 0.9 | 2.6 | 0.00 | 0.00 | 0.00 | 89 | 1015.0 |
| 20260507021503 | 43 | 77 | 0.9 | 3.5 | 0.00 | 0.00 | 0.00 | 89 | 1014.9 |
| 20260507020003 | 43 | 59 | 1.7 | 2.6 | 0.00 | 0.00 | 0.00 | 89 | 1015.0 |
| 20260507014716 | 43 | 8 | 0.0 | 2.6 | 0.00 | 0.00 | 0.00 | 88 | 1015.1 |
| 20260507013003 | 44 | 0 | 0.0 | 0.0 | 0.00 | 0.00 | 0.00 | 88 | 1015.1 |
| 20260507011503 | 44 | 40 | 0.9 | 2.6 | 0.00 | 0.00 | 0.00 | 88 | 1015.2 |
| 20260507010003 | 44 | 106 | 1.7 | 5.2 | 0.00 | 0.00 | 0.00 | 88 | 1015.2 |
| 20260507004503 | 44 | 117 | 0.9 | 4.3 | 0.00 | 0.00 | 0.00 | 88 | 1015.2 |
| 20260507003003 | 44 | 156 | 2.6 | 8.7 | 0.00 | 0.00 | 0.00 | 86 | 1015.2 |
| 20260507001503 | 44 | 247 | 0.9 | 5.2 | 0.00 | 0.00 | 0.00 | 85 | 1015.3 |
| 20260507000003 | 44 | 353 | 1.7 | 4.3 | 0.00 | 0.00 | 0.00 | 84 | 1015.2 |
| 20260506234503 | 44 | 94 | 1.7 | 7.8 | 0.00 | 0.00 | 0.00 | 84 | 1015.1 |
| 20260506233003 | 45 | 64 | 1.7 | 6.1 | 0.00 | 0.00 | 0.00 | 82 | 1015.2 |
| 20260506231503 | 45 | 92 | 2.6 | 8.7 | 0.00 | 0.00 | 0.00 | 82 | 1015.0 |
| 20260506230003 | 45 | 97 | 3.5 | 11.3 | 0.00 | 0.00 | 0.00 | 82 | 1014.9 |
| 20260506224503 | 45 | 117 | 5.2 | 12.2 | 0.00 | 0.00 | 0.00 | 82 | 1014.9 |
| 20260506223003 | 45 | 121 | 6.1 | 13.0 | 0.00 | 0.00 | 0.00 | 82 | 1014.8 |
| 20260506221503 | 45 | 121 | 5.2 | 12.2 | 0.00 | 0.00 | 0.00 | 81 | 1014.8 |
| 20260506220216 | 46 | 120 | 6.1 | 12.2 | 0.00 | 0.00 | 0.00 | 79 | 1014.8 |
| 20260506214503 | 46 | 116 | 5.2 | 12.2 | 0.00 | 0.00 | 0.00 | 79 | 1014.6 |
| 20260506213003 | 46 | 123 | 6.1 | 11.3 | 0.00 | 0.00 | 0.00 | 78 | 1014.5 |
| 20260506211503 | 46 | 123 | 5.2 | 11.3 | 0.00 | 0.00 | 0.00 | 78 | 1014.5 |
| 20260506210003 | 47 | 119 | 5.2 | 10.4 | 0.00 | 0.00 | 0.00 | 75 | 1014.4 |
| 20260506204503 | 48 | 123 | 4.3 | 9.6 | 0.00 | 0.00 | 0.00 | 72 | 1014.3 |
| 20260506203218 | 48 | 117 | 3.5 | 8.7 | 0.00 | 0.00 | 0.00 | 70 | 1014.2 |
| 20260506201503 | 49 | 111 | 3.5 | 7.8 | 0.00 | 0.00 | 0.00 | 68 | 1014.1 |
| 20260506200219 | 49 | 112 | 4.3 | 10.4 | 0.00 | 0.00 | 0.00 | 67 | 1014.0 |
| 20260506194503 | 49 | 126 | 1.7 | 6.1 | 0.00 | 0.00 | 0.00 | 67 | 1013.8 |
| 20260506193003 | 50 | 118 | 1.7 | 5.2 | 0.00 | 0.00 | 0.00 | 67 | 1013.7 |
| 20260506191503 | 51 | 114 | 0.9 | 2.6 | 0.00 | 0.00 | 0.00 | 62 | 1013.7 |
| 20260506190003 | 52 | 55 | 0.0 | 1.7 | 0.00 | 0.00 | 0.00 | 61 | 1013.7 |
| 20260506184503 | 52 | 80 | 0.0 | 2.6 | 0.00 | 0.00 | 0.00 | 58 | 1013.6 |
| 20260506183003 | 52 | 75 | 2.6 | 5.2 | 0.00 | 0.00 | 0.00 | 56 | 1013.6 |